Port Ludlow, WA (98365)

10:03 PM PDT on May 05, 2015 (GMT -0700)
Timberton | | Change Station
CLOSE
Current Station
Personal Weather Station
Location: Port Ludlow, WA
Elevation: 148 ft
Nearby Weather Stations

Elev 148 ft 47.91 °N, 122.71 °W | Updated 16 seconds ago

Mostly Cloudy
Mostly Cloudy
43.3 °F
Feels Like 43 °F
N
0.0
Wind Variable Wind from West
Gusts 0.0 mph

Today
High -- | Low -- °F
--% Chance of Precip.
Yesterday
High -- | Low -- °F
Precip. -- in
5:46 AM 8:29 PM
Waning Gibbous, 96% visible
Pressure 30.12 in
Visibility 10.0 miles
Clouds Few 3500 ft
Windchill 43 °F
Dew Point 43 °F
Humidity 99%
Rainfall 0.48 in
Snow Depth Not available.
UV 0 out of 12
Pollen 5.90 out of 12
Air Quality Not available.
Flu Activity Sporadic
METAR KPAE 060453Z 20006KT 10SM FEW035 07/06 A3011 RMK AO2 SLP199 T00720056

More Conditions Fewer Conditions

Pressure 30.12 in
Visibility 10.0 miles
Clouds Few 3500 ft
Windchill 43 °F
Dew Point 43 °F
Humidity 99%
Rainfall 0.48 in
Snow Depth Not available.
UV 0 out of 12
Pollen 5.90 out of 12
Air Quality Not available.
Flu Activity Sporadic
METAR KPAE 060453Z 20006KT 10SM FEW035 07/06 A3011 RMK AO2 SLP199 T00720056

More Conditions Fewer Conditions

10-Day Weather Forecast

Almanac

Astronomy

May. 05, 2015 Rise Set
Actual Time
Civil Twilight
Nautical Twilight
Astronomical Twilight
Moon
Length of Visible Light
Length of Day
Tomorrow will be .
, % of the Moon is Illuminated

Today's Extremes

State Highs State Lows

Community

WunderPhotos

Upload Photos

1,818,837 photos uploaded!

WunderBlogs® & News

Nearby

Air Quality

  Air Quality AQ Index Pollutant
Not available.

Snow Depth

Station Depth Elevation

Earthquake Activity

City Distance Mag. Time & Date
Minimum magnitude displayed is 2.5.

Coastal Water Temperatures

Place Temperature

Stations

Nearby Weather Stations

Station Location Temp. Windchill Dew Point Humidity Wind Precip. Elev Updated Type